ENNA METAR and TAF weather

Enter ICAO airport designator
Station Type Date Time Source
ENNA METAR 2020/09/19 01:50 UTC NOAA

ENNA 190150Z AUTO 32016KT 9999 FEW013/// BKN034/// 07/04 Q0999 RMK WIND 1800FT 30028KT


Station Type Date Time Source
ENNA Decoded METAR 2020/09/19 01:50 UTC NOAA

Banak, Norway (ENNA) 70-04N 024-59E 8M
Sep 18, 2020 - 09:50 PM EDT / 2020.09.19 0150 UTC
Wind: from the NW (320 degrees) at 18 MPH (16 KT):0
Visibility: greater than 7 mile(s):0
Sky conditions: mostly cloudy
Temperature: 44 F (7 C)
Dew Point: 39 F (4 C)
Relative Humidity: 81%
Pressure (altimeter): 29.50 in. Hg (0999 hPa)
ob: ENNA 190150Z AUTO 32016KT 9999 FEW013/// BKN034/// 07/04 Q0999 RMK WIND 1800FT 30028KT
cycle: 2

Station Type Date Time Source
ENNA TAF 2020/09/18 18:57 UTC NOAA

TAF TAF ENNA 181700Z 1818/1918 27018KT 9999 -SHRA FEW015TCU BKN025
TEMPO 1818/1915 30025G40KT SHRA FEW020CB

Example: see airport list